Sidell, IL (61876)

6:40 PM CST on February 06, 2016 (GMT -0600)
APRSWXNET | | Change Station
CLOSE
Current Station
Personal Weather Station
Location: Newman, IL
Elevation: 649 ft
Nearby Weather Stations

Elev 649 ft 39.80 °N, 87.98 °W | Updated 34 minutes ago

Clear
Clear
40 °F
Feels Like 40 °F
N
3
Wind Variable Wind from SSW
Gusts 5.0 mph

Today
High -- | Low -- °F
--% Chance of Precip.
Yesterday
High -- | Low -- °F
Precip. -- in
Pressure 30.21 in
Visibility 10.0 miles
Clouds Clear
Windchill 40 °F
Dew Point 32 °F
Humidity 73%
Rainfall in
Snow Depth Not available.
6:55 AM 5:16 PM
Waning Crescent, 3% visible
METAR KPRG 070015Z AUTO 17005KT 10SM CLR 01/M01 A3021 RMK AO2 T00061015
Pressure 30.21 in
Visibility 10.0 miles
Clouds Clear
Windchill 40 °F
Dew Point 32 °F
Humidity 73%
Rainfall in
Snow Depth Not available.
6:55 AM 5:16 PM
Waning Crescent, 3% visible
METAR KPRG 070015Z AUTO 17005KT 10SM CLR 01/M01 A3021 RMK AO2 T00061015

10-Day Weather Forecast

Almanac

Astronomy

Feb. 06, 2016 Rise Set
Actual Time
Civil Twilight
Nautical Twilight
Astronomical Twilight
Moon
Length of Visible Light
Length of Day
Tomorrow will be .
, % of the Moon is Illuminated

Today's Extremes

State Highs State Lows

Community

WunderPhotos

Upload Photos

1,891,108 photos uploaded!

WunderBlog® & News

Nearby

Air Quality

  Air Quality AQ Index Pollutant
Not available.

Snow Depth

Station Depth Elevation

Earthquake Activity

City Distance Mag. Time & Date
Minimum magnitude displayed is 2.5.

Coastal Water Temperatures

Place Temperature

Stations

Nearby Weather Stations

Station Location Temp. Windchill Dew Point Humidity Wind Precip. Elev Updated Type
                   

Watches & Warnings

There are currently no watches in effect.